createdAt,value
2019-02-03T00:01:49.461Z,0.00
2019-02-03T00:02:49.695Z,0.00
2019-02-03T00:04:53.842Z,0.00
2019-02-03T00:05:54.076Z,0.00
2019-02-03T00:07:58.235Z,0.00
2019-02-03T00:08:58.467Z,0.00
2019-02-03T00:11:02.610Z,0.00
2019-02-03T00:12:02.843Z,0.00
2019-02-03T00:14:07.005Z,0.00
2019-02-03T00:15:07.238Z,0.00
2019-02-03T00:17:00.331Z,0.00
2019-02-03T00:18:00.568Z,0.00
2019-02-03T00:20:04.703Z,0.00
2019-02-03T00:21:04.938Z,0.00
2019-02-03T00:23:09.100Z,0.00
2019-02-03T00:24:09.334Z,0.00
2019-02-03T00:26:13.478Z,0.00
2019-02-03T00:27:13.711Z,0.00
2019-02-03T00:29:17.876Z,0.00
2019-02-03T00:30:18.107Z,0.00
2019-02-03T00:32:22.269Z,0.00
2019-02-03T00:33:22.503Z,0.00
2019-02-03T00:35:26.643Z,0.00
2019-02-03T00:36:26.876Z,0.00
2019-02-03T00:38:31.090Z,0.00
2019-02-03T00:39:31.300Z,0.00
2019-02-03T00:41:35.460Z,0.00
2019-02-03T00:42:35.649Z,0.00
2019-02-03T00:44:39.808Z,0.00
2019-02-03T00:45:40.040Z,0.00
2019-02-03T00:47:44.205Z,0.00
2019-02-03T00:48:44.441Z,0.00
2019-02-03T00:50:48.582Z,0.00
2019-02-03T00:51:48.819Z,0.00
2019-02-03T00:53:52.980Z,0.00
2019-02-03T00:54:53.214Z,0.00
2019-02-03T00:56:46.289Z,0.00
2019-02-03T00:57:46.524Z,0.00
2019-02-03T00:59:50.691Z,0.00
2019-02-03T01:00:50.923Z,0.00
2019-02-03T01:02:55.084Z,0.00
2019-02-03T01:03:55.323Z,0.00
2019-02-03T01:05:59.463Z,0.00
2019-02-03T01:06:59.697Z,0.00
2019-02-03T01:09:03.871Z,0.00
2019-02-03T01:10:04.093Z,0.00
2019-02-03T01:12:08.234Z,0.00
2019-02-03T01:13:08.466Z,0.00
2019-02-03T01:15:12.660Z,0.00
2019-02-03T01:16:12.899Z,0.00
2019-02-03T01:18:17.061Z,0.00
2019-02-03T01:19:17.296Z,0.00
2019-02-03T01:21:21.437Z,0.00
2019-02-03T01:22:21.671Z,0.00
2019-02-03T01:24:25.836Z,0.00
2019-02-03T01:25:26.071Z,0.00
2019-02-03T01:27:30.210Z,0.00
2019-02-03T01:28:30.444Z,0.00
2019-02-03T01:30:34.605Z,0.00
2019-02-03T01:31:34.841Z,0.00
2019-02-03T01:33:39.001Z,0.00
2019-02-03T01:34:39.234Z,0.00
2019-02-03T01:36:32.301Z,0.00
2019-02-03T01:37:39.416Z,0.00
2019-02-03T01:39:36.699Z,0.00
2019-02-03T01:40:36.930Z,0.00
2019-02-03T01:42:41.068Z,0.00
2019-02-03T01:43:41.304Z,0.00
2019-02-03T01:45:45.464Z,0.00
2019-02-03T01:46:45.701Z,0.00
2019-02-03T01:48:49.863Z,0.00
2019-02-03T01:49:50.096Z,0.00
2019-02-03T01:51:54.236Z,0.00
2019-02-03T01:52:54.469Z,0.00
2019-02-03T01:54:58.629Z,0.00
2019-02-03T01:55:58.866Z,0.00
2019-02-03T01:58:03.007Z,0.00
2019-02-03T01:59:03.242Z,0.00
2019-02-03T02:01:07.404Z,0.00
2019-02-03T02:02:07.636Z,0.00
2019-02-03T02:04:11.799Z,0.00
2019-02-03T02:05:12.035Z,0.00
2019-02-03T02:07:05.105Z,0.00
2019-02-03T02:08:05.339Z,0.00
2019-02-03T02:10:09.500Z,0.00
2019-02-03T02:11:09.734Z,0.00
2019-02-03T02:13:13.872Z,0.00
2019-02-03T02:14:14.110Z,0.00
2019-02-03T02:16:18.265Z,0.00
2019-02-03T02:17:18.501Z,0.00
2019-02-03T02:19:22.664Z,0.00
2019-02-03T02:20:23.010Z,0.00
2019-02-03T02:22:27.042Z,0.00
2019-02-03T02:23:27.272Z,0.00
2019-02-03T02:25:31.434Z,0.00
2019-02-03T02:26:31.669Z,0.00
2019-02-03T02:28:35.804Z,0.00
2019-02-03T02:29:36.037Z,0.00
2019-02-03T02:31:40.205Z,0.00
2019-02-03T02:32:40.430Z,0.00
2019-02-03T02:34:44.596Z,0.00
2019-02-03T02:35:44.828Z,0.00
2019-02-03T02:37:49.023Z,0.00
2019-02-03T02:38:49.208Z,0.00
2019-02-03T02:40:53.372Z,0.00
2019-02-03T02:41:53.606Z,0.00
2019-02-03T02:43:57.755Z,0.00
2019-02-03T02:44:57.989Z,0.00
2019-02-03T02:46:51.087Z,0.00
2019-02-03T02:47:51.323Z,0.00
2019-02-03T02:49:55.489Z,0.00
2019-02-03T02:50:55.729Z,0.00
2019-02-03T02:52:59.876Z,0.00
2019-02-03T02:54:00.112Z,0.00
2019-02-03T02:56:04.282Z,0.00
2019-02-03T02:57:04.515Z,0.00
2019-02-03T02:59:08.666Z,0.00
2019-02-03T03:00:08.898Z,0.00
2019-02-03T03:02:13.065Z,0.00
2019-02-03T03:03:13.302Z,0.00
2019-02-03T03:05:17.619Z,0.00
2019-02-03T03:06:17.702Z,0.00
2019-02-03T03:08:21.847Z,0.00
2019-02-03T03:09:22.090Z,0.00
2019-02-03T03:11:26.258Z,0.00
2019-02-03T03:12:26.492Z,0.00
2019-02-03T03:14:30.635Z,0.00
2019-02-03T03:15:30.874Z,0.00
2019-02-03T03:17:35.037Z,0.00
2019-02-03T03:18:35.269Z,0.00
2019-02-03T03:20:39.433Z,0.00
2019-02-03T03:21:39.683Z,0.00
2019-02-03T03:23:43.812Z,0.00
2019-02-03T03:24:44.082Z,0.00
2019-02-03T03:26:37.128Z,0.00
2019-02-03T03:27:37.362Z,0.00
2019-02-03T03:29:41.507Z,0.00
2019-02-03T03:30:41.751Z,0.00
2019-02-03T03:32:45.907Z,0.00
2019-02-03T03:33:46.135Z,0.00
2019-02-03T03:35:50.300Z,0.00
2019-02-03T03:36:50.533Z,0.00
2019-02-03T03:38:54.677Z,0.00
2019-02-03T03:39:54.906Z,0.00
2019-02-03T03:41:59.073Z,0.00
2019-02-03T03:42:59.302Z,0.00
2019-02-03T03:45:03.443Z,0.00
2019-02-03T03:46:06.455Z,0.00
2019-02-03T03:48:07.854Z,0.00
2019-02-03T03:49:08.066Z,0.00
2019-02-03T03:51:12.228Z,0.00
2019-02-03T03:52:12.496Z,0.00
2019-02-03T03:54:16.602Z,0.00
2019-02-03T03:55:16.835Z,0.00
2019-02-03T03:57:09.928Z,0.00
2019-02-03T03:58:10.161Z,0.00
2019-02-03T04:00:14.298Z,0.00
2019-02-03T04:01:14.533Z,0.00
2019-02-03T04:03:18.695Z,0.00
2019-02-03T04:04:18.929Z,0.00
2019-02-03T04:06:23.088Z,0.00
2019-02-03T04:07:23.322Z,0.00
2019-02-03T04:09:27.464Z,0.00
2019-02-03T04:10:27.697Z,0.00
2019-02-03T04:12:31.856Z,0.00
2019-02-03T04:13:32.087Z,0.00
2019-02-03T04:15:36.232Z,0.00
2019-02-03T04:16:36.465Z,0.00
2019-02-03T04:18:40.632Z,0.00
2019-02-03T04:19:40.864Z,0.00
2019-02-03T04:21:45.095Z,0.00
2019-02-03T04:22:45.260Z,0.00
2019-02-03T04:24:49.405Z,0.00
2019-02-03T04:25:49.637Z,0.00
2019-02-03T04:27:53.813Z,0.00
2019-02-03T04:28:54.031Z,0.00
2019-02-03T04:30:58.168Z,0.00
2019-02-03T04:31:58.404Z,0.00
2019-02-03T04:34:02.569Z,0.00
2019-02-03T04:35:02.803Z,0.00
2019-02-03T04:36:55.899Z,0.00
2019-02-03T04:37:56.132Z,0.00
2019-02-03T04:40:00.638Z,0.00
2019-02-03T04:41:00.505Z,0.00
2019-02-03T04:43:04.670Z,0.00
2019-02-03T04:44:04.902Z,0.00
2019-02-03T04:46:09.041Z,0.00
2019-02-03T04:47:09.274Z,0.00
2019-02-03T04:49:13.436Z,0.00
2019-02-03T04:50:13.666Z,0.00
2019-02-03T04:52:17.833Z,0.00
2019-02-03T04:53:18.063Z,0.00
2019-02-03T04:55:22.198Z,0.00
2019-02-03T04:56:22.470Z,0.00
2019-02-03T04:58:26.592Z,0.00
2019-02-03T04:59:26.826Z,0.00
2019-02-03T05:01:30.964Z,0.00
2019-02-03T05:02:31.198Z,0.00
2019-02-03T05:04:35.363Z,0.00
2019-02-03T05:05:35.602Z,0.00
2019-02-03T05:07:39.768Z,0.00
2019-02-03T05:08:40.000Z,0.00
2019-02-03T05:10:44.140Z,0.00
2019-02-03T05:11:44.372Z,0.00
2019-02-03T05:13:48.538Z,0.00
2019-02-03T05:14:48.766Z,0.00
2019-02-03T05:16:41.833Z,0.00
2019-02-03T05:17:42.068Z,0.00
2019-02-03T05:19:46.226Z,0.00
2019-02-03T05:20:46.457Z,0.00
2019-02-03T05:22:50.623Z,0.00
2019-02-03T05:23:50.855Z,0.00
2019-02-03T05:25:55.015Z,0.00
2019-02-03T05:26:55.225Z,0.00
2019-02-03T05:28:59.389Z,0.00
2019-02-03T05:29:59.616Z,0.00
2019-02-03T05:32:03.759Z,0.00
2019-02-03T05:33:03.990Z,0.00
2019-02-03T05:35:08.150Z,0.00
2019-02-03T05:36:08.381Z,0.00
2019-02-03T05:38:12.546Z,0.00
2019-02-03T05:39:24.387Z,0.00
2019-02-03T05:41:16.916Z,0.00
2019-02-03T05:42:17.150Z,0.00
2019-02-03T05:44:21.331Z,0.00
2019-02-03T05:45:21.548Z,0.00
2019-02-03T05:47:14.617Z,0.00
2019-02-03T05:48:14.852Z,0.00
2019-02-03T05:50:19.022Z,0.00
2019-02-03T05:51:19.258Z,0.00
2019-02-03T05:53:23.425Z,0.00
2019-02-03T05:54:23.660Z,0.00
2019-02-03T05:56:27.802Z,0.00
2019-02-03T05:57:28.035Z,0.00
2019-02-03T05:59:32.198Z,0.00
2019-02-03T06:00:32.435Z,0.00
2019-02-03T06:02:36.585Z,0.00
2019-02-03T06:03:36.818Z,0.00
2019-02-03T06:05:40.983Z,0.00
2019-02-03T06:06:41.219Z,0.00
2019-02-03T06:08:45.360Z,0.00
2019-02-03T06:09:45.599Z,0.00
2019-02-03T06:11:49.935Z,0.00
2019-02-03T06:12:49.930Z,0.00
2019-02-03T06:14:54.089Z,0.00
2019-02-03T06:15:54.323Z,0.00
2019-02-03T06:17:58.464Z,0.00
2019-02-03T06:18:58.697Z,0.00
2019-02-03T06:21:02.855Z,0.00
2019-02-03T06:22:03.086Z,0.00
2019-02-03T06:24:07.227Z,0.00
2019-02-03T06:25:07.461Z,0.00
2019-02-03T06:27:11.622Z,0.00
2019-02-03T06:28:11.853Z,4.00
2019-02-03T06:30:16.022Z,4.00
2019-02-03T06:31:16.262Z,8.00
2019-02-03T06:33:20.398Z,8.00
2019-02-03T06:34:20.627Z,12.00
2019-02-03T06:36:24.787Z,16.00
2019-02-03T06:37:25.018Z,20.00
2019-02-03T06:39:29.244Z,28.00
2019-02-03T06:40:29.394Z,36.00
2019-02-03T06:42:33.659Z,44.00
2019-02-03T06:43:33.793Z,48.00
2019-02-03T06:45:37.953Z,56.00
2019-02-03T06:46:38.185Z,60.00
2019-02-03T06:48:42.332Z,72.00
2019-02-03T06:49:42.568Z,68.00
2019-02-03T06:51:46.728Z,76.00
2019-02-03T06:52:46.959Z,76.00
2019-02-03T06:54:51.104Z,88.00
2019-02-03T06:55:51.336Z,100.00
2019-02-03T06:57:55.499Z,132.00
2019-02-03T06:58:56.941Z,144.00
2019-02-03T07:00:59.891Z,156.00
2019-02-03T07:02:00.125Z,168.00
2019-02-03T07:04:04.273Z,192.00
2019-02-03T07:05:04.505Z,216.00
2019-02-03T07:06:57.595Z,276.00
2019-02-03T07:07:57.828Z,312.00
2019-02-03T07:10:01.971Z,352.00
2019-02-03T07:11:02.202Z,372.00
2019-02-03T07:13:06.363Z,336.00
2019-02-03T07:14:06.596Z,340.00
2019-02-03T07:16:10.775Z,396.00
2019-02-03T07:17:11.023Z,404.00
2019-02-03T07:19:15.142Z,460.00
2019-02-03T07:20:15.380Z,492.00
2019-02-03T07:22:19.537Z,464.00
2019-02-03T07:23:19.770Z,516.00
2019-02-03T07:25:23.909Z,584.00
2019-02-03T07:26:24.142Z,604.00
2019-02-03T07:28:28.298Z,716.00
2019-02-03T07:29:28.531Z,700.00
2019-02-03T07:31:32.694Z,744.00
2019-02-03T07:32:32.928Z,744.00
2019-02-03T07:34:37.065Z,876.00
2019-02-03T07:35:37.298Z,948.00
2019-02-03T07:37:41.461Z,968.00
2019-02-03T07:38:41.693Z,964.00
2019-02-03T07:40:45.834Z,1048.00
2019-02-03T07:41:46.070Z,1056.00
2019-02-03T07:43:50.230Z,1196.00
2019-02-03T07:44:50.468Z,1284.00
2019-02-03T07:46:43.559Z,1232.00
2019-02-03T07:47:43.794Z,1320.00
2019-02-03T07:49:47.934Z,1184.00
2019-02-03T07:50:48.167Z,1172.00
2019-02-03T07:52:52.334Z,1188.00
2019-02-03T07:53:52.567Z,1280.00
2019-02-03T07:55:56.707Z,1540.00
2019-02-03T07:56:56.937Z,1572.00
2019-02-03T07:59:01.110Z,1504.00
2019-02-03T08:00:01.345Z,1448.00
2019-02-03T08:02:05.507Z,1524.00
2019-02-03T08:03:05.741Z,1612.00
2019-02-03T08:05:09.879Z,1752.00
2019-02-03T08:06:10.118Z,1856.00
2019-02-03T08:08:14.274Z,2188.00
2019-02-03T08:09:14.509Z,2036.00
2019-02-03T08:11:18.649Z,2160.00
2019-02-03T08:12:18.881Z,2456.00
2019-02-03T08:14:23.043Z,2792.00
2019-02-03T08:15:23.274Z,2672.00
2019-02-03T08:17:27.456Z,3040.00
2019-02-03T08:18:27.681Z,3500.00
2019-02-03T08:20:31.818Z,4272.00
2019-02-03T08:21:32.051Z,4312.00
2019-02-03T08:23:36.213Z,3924.00
2019-02-03T08:24:36.446Z,3632.00
2019-02-03T08:26:29.509Z,3064.00
2019-02-03T08:27:29.743Z,2948.00
2019-02-03T08:29:33.905Z,2816.00
2019-02-03T08:30:34.139Z,2548.00
2019-02-03T08:32:38.305Z,2160.00
2019-02-03T08:33:38.538Z,2260.00
2019-02-03T08:35:42.674Z,2524.00
2019-02-03T08:36:42.907Z,2748.00
2019-02-03T08:38:47.074Z,2700.00
2019-02-03T08:39:47.302Z,2684.00
2019-02-03T08:41:51.439Z,2692.00
2019-02-03T08:42:51.673Z,2572.00
2019-02-03T08:44:55.836Z,2412.00
2019-02-03T08:45:56.067Z,2456.00
2019-02-03T08:48:00.230Z,2232.00
2019-02-03T08:49:00.464Z,2088.00
2019-02-03T08:51:04.603Z,2132.00
2019-02-03T08:52:04.835Z,2152.00
2019-02-03T08:54:08.998Z,2636.00
2019-02-03T08:55:09.231Z,3268.00
2019-02-03T08:57:02.306Z,4712.00
2019-02-03T08:58:02.545Z,4380.00
2019-02-03T09:00:06.708Z,3348.00
2019-02-03T09:01:06.941Z,3164.00
2019-02-03T09:03:11.106Z,3444.00
2019-02-03T09:04:11.342Z,3684.00
2019-02-03T09:06:15.480Z,3824.00
2019-02-03T09:07:15.710Z,3528.00
2019-02-03T09:09:19.874Z,3324.00
2019-02-03T09:10:20.114Z,3548.00
2019-02-03T09:12:24.246Z,3884.00
2019-02-03T09:13:24.478Z,3644.00
2019-02-03T09:15:28.638Z,4260.00
2019-02-03T09:16:28.871Z,3976.00
2019-02-03T09:18:34.971Z,3904.00
2019-02-03T09:19:33.265Z,4108.00
2019-02-03T09:21:37.404Z,5192.00
2019-02-03T09:22:40.065Z,5568.00
2019-02-03T09:24:41.794Z,5684.00
2019-02-03T09:25:42.025Z,6092.00
2019-02-03T09:27:46.164Z,6216.00
2019-02-03T09:28:46.397Z,6176.00
2019-02-03T09:30:50.557Z,6784.00
2019-02-03T09:31:50.792Z,6872.00
2019-02-03T09:33:54.976Z,7160.00
2019-02-03T09:34:55.199Z,7144.00
2019-02-03T09:36:48.270Z,8200.00
2019-02-03T09:37:48.503Z,9304.00
2019-02-03T09:39:52.712Z,9376.00
2019-02-03T09:40:59.795Z,9988.00
2019-02-03T09:42:57.033Z,10636.00
2019-02-03T09:43:57.265Z,10672.00
2019-02-03T09:46:01.424Z,10872.00
2019-02-03T09:47:01.664Z,10732.00
2019-02-03T09:49:05.804Z,9968.00
2019-02-03T09:50:06.040Z,9672.00
2019-02-03T09:52:10.204Z,8464.00
2019-02-03T09:53:10.438Z,7664.00
2019-02-03T09:55:14.603Z,7480.00
2019-02-03T09:56:14.921Z,6904.00
2019-02-03T09:58:18.978Z,6240.00
2019-02-03T09:59:19.210Z,6424.00
2019-02-03T10:01:23.375Z,6152.00
2019-02-03T10:02:23.606Z,6116.00
2019-02-03T10:04:27.788Z,5704.00
2019-02-03T10:05:28.028Z,5912.00
2019-02-03T10:07:32.188Z,6136.00
2019-02-03T10:08:40.379Z,6144.00
2019-02-03T10:10:36.584Z,6664.00
2019-02-03T10:11:36.819Z,6864.00
2019-02-03T10:13:40.955Z,6288.00
2019-02-03T10:14:41.191Z,5896.00
2019-02-03T10:16:34.279Z,5312.00
2019-02-03T10:17:34.513Z,5240.00
2019-02-03T10:19:38.650Z,5892.00
2019-02-03T10:20:38.886Z,6236.00
2019-02-03T10:22:43.048Z,7228.00
2019-02-03T10:23:43.279Z,7856.00
2019-02-03T10:25:47.437Z,9748.00
2019-02-03T10:26:47.673Z,10536.00
2019-02-03T10:28:51.817Z,11820.00
2019-02-03T10:29:52.067Z,12252.00
2019-02-03T10:31:56.213Z,11852.00
2019-02-03T10:32:56.468Z,11904.00
2019-02-03T10:35:00.586Z,11312.00
2019-02-03T10:36:00.820Z,10620.00
2019-02-03T10:38:04.985Z,10004.00
2019-02-03T10:39:05.220Z,11196.00
2019-02-03T10:41:09.384Z,11920.00
2019-02-03T10:42:09.618Z,11520.00
2019-02-03T10:44:13.758Z,11948.00
2019-02-03T10:45:13.992Z,12588.00
2019-02-03T10:47:07.083Z,13320.00
2019-02-03T10:48:07.318Z,13436.00
2019-02-03T10:50:11.465Z,11672.00
2019-02-03T10:51:11.699Z,10812.00
2019-02-03T10:53:15.865Z,12548.00
2019-02-03T10:54:16.099Z,13036.00
2019-02-03T10:56:20.266Z,14052.00
2019-02-03T10:57:20.499Z,12960.00
2019-02-03T10:59:24.643Z,13560.00
2019-02-03T11:00:24.879Z,12204.00
2019-02-03T11:02:29.046Z,11148.00
2019-02-03T11:03:29.281Z,10116.00
2019-02-03T11:05:33.427Z,9448.00
2019-02-03T11:06:33.658Z,9552.00
2019-02-03T11:08:37.822Z,9796.00
2019-02-03T11:09:38.059Z,9948.00
2019-02-03T11:11:42.227Z,10772.00
2019-02-03T11:12:42.466Z,12796.00
2019-02-03T11:14:46.607Z,14032.00
2019-02-03T11:15:46.840Z,12636.00
2019-02-03T11:17:51.003Z,9832.00
2019-02-03T11:18:51.243Z,9672.00
2019-02-03T11:20:55.412Z,10968.00
2019-02-03T11:21:55.646Z,10968.00
2019-02-03T11:23:59.787Z,10132.00
2019-02-03T11:25:00.020Z,9580.00
2019-02-03T11:26:53.109Z,9356.00
2019-02-03T11:27:53.343Z,9188.00
2019-02-03T11:29:57.482Z,8416.00
2019-02-03T11:30:57.717Z,7992.00
2019-02-03T11:33:08.506Z,7328.00
2019-02-03T11:34:02.119Z,7348.00
2019-02-03T11:36:06.276Z,8812.00
2019-02-03T11:37:06.510Z,8372.00
2019-02-03T11:39:10.650Z,8068.00
2019-02-03T11:40:10.887Z,7884.00
2019-02-03T11:42:15.051Z,9492.00
2019-02-03T11:43:15.287Z,9244.00
2019-02-03T11:45:19.433Z,7864.00
2019-02-03T11:46:19.665Z,7464.00
2019-02-03T11:48:23.831Z,6904.00
2019-02-03T11:49:24.063Z,6728.00
2019-02-03T11:51:28.389Z,6460.00
2019-02-03T11:52:28.642Z,5672.00
2019-02-03T11:54:32.787Z,4984.00
2019-02-03T11:55:33.151Z,4856.00
2019-02-03T11:57:37.329Z,4968.00
2019-02-03T11:58:37.692Z,5368.00
2019-02-03T12:00:41.860Z,6268.00
2019-02-03T12:01:42.075Z,6388.00
2019-02-03T12:03:46.395Z,7056.00
2019-02-03T12:04:46.743Z,6880.00
2019-02-03T12:06:39.962Z,6212.00
2019-02-03T12:07:40.325Z,6220.00
2019-02-03T12:09:44.536Z,5500.00
2019-02-03T12:10:44.904Z,5256.00
2019-02-03T12:12:49.287Z,5180.00
2019-02-03T12:13:49.443Z,5260.00
2019-02-03T12:15:53.588Z,4960.00
2019-02-03T12:16:53.944Z,4656.00
2019-02-03T12:18:58.217Z,4572.00
2019-02-03T12:19:58.620Z,4552.00
2019-02-03T12:22:03.959Z,4280.00
2019-02-03T12:23:04.256Z,4440.00
2019-02-03T12:25:08.398Z,4700.00
2019-02-03T12:26:08.760Z,4400.00
2019-02-03T12:28:13.131Z,5428.00
2019-02-03T12:29:13.126Z,5220.00
2019-02-03T12:31:17.364Z,4720.00
2019-02-03T12:32:17.647Z,4784.00
2019-02-03T12:34:21.901Z,3888.00
2019-02-03T12:35:22.195Z,3628.00
2019-02-03T12:37:15.292Z,3468.00
2019-02-03T12:38:15.582Z,3380.00
2019-02-03T12:40:19.889Z,3612.00
2019-02-03T12:41:20.215Z,3904.00
2019-02-03T12:43:24.548Z,4416.00
2019-02-03T12:44:24.835Z,4756.00
2019-02-03T12:46:29.007Z,5836.00
2019-02-03T12:47:29.382Z,6684.00
2019-02-03T12:49:33.708Z,7748.00
2019-02-03T12:50:34.088Z,6728.00
2019-02-03T12:52:38.253Z,6828.00
2019-02-03T12:53:38.491Z,6640.00
2019-02-03T12:55:44.728Z,5780.00
2019-02-03T12:56:42.890Z,5940.00
2019-02-03T12:58:47.275Z,5472.00
2019-02-03T12:59:47.273Z,5068.00
2019-02-03T13:01:51.491Z,4768.00
2019-02-03T13:02:51.823Z,5112.00
2019-02-03T13:04:56.060Z,4608.00
2019-02-03T13:05:56.471Z,4608.00
2019-02-03T13:08:00.502Z,4972.00
2019-02-03T13:09:00.816Z,4436.00
2019-02-03T13:11:04.990Z,4664.00
2019-02-03T13:12:05.256Z,4580.00
2019-02-03T13:14:09.534Z,4528.00
2019-02-03T13:15:09.869Z,4876.00
2019-02-03T13:17:02.937Z,5764.00
2019-02-03T13:18:03.168Z,6112.00
2019-02-03T13:20:07.324Z,7104.00
2019-02-03T13:21:07.556Z,6812.00
2019-02-03T13:23:11.861Z,6124.00
2019-02-03T13:24:12.201Z,6536.00
2019-02-03T13:26:16.462Z,6704.00
2019-02-03T13:27:16.843Z,6496.00
2019-02-03T13:29:20.919Z,6192.00
2019-02-03T13:30:21.209Z,6288.00
2019-02-03T13:32:25.355Z,5844.00
2019-02-03T13:33:25.590Z,5780.00
2019-02-03T13:35:30.761Z,5924.00
2019-02-03T13:36:31.116Z,6784.00
2019-02-03T13:38:35.330Z,6244.00
2019-02-03T13:39:35.562Z,6576.00
2019-02-03T13:41:39.700Z,6700.00
2019-02-03T13:42:39.930Z,6176.00
2019-02-03T13:44:44.095Z,5868.00
2019-02-03T13:45:45.072Z,5852.00
2019-02-03T13:47:48.473Z,6272.00
2019-02-03T13:48:48.705Z,5804.00
2019-02-03T13:50:54.746Z,5976.00
2019-02-03T13:51:53.116Z,5544.00
2019-02-03T13:53:57.286Z,5396.00
2019-02-03T13:54:57.518Z,5656.00
2019-02-03T13:56:50.590Z,6028.00
2019-02-03T13:57:50.822Z,5720.00
2019-02-03T13:59:54.982Z,5816.00
2019-02-03T14:00:55.216Z,5904.00
2019-02-03T14:02:59.479Z,6444.00
2019-02-03T14:03:59.590Z,6128.00
2019-02-03T14:06:03.751Z,5384.00
2019-02-03T14:07:03.984Z,4640.00
2019-02-03T14:09:08.144Z,4596.00
2019-02-03T14:10:08.377Z,4692.00
2019-02-03T14:12:12.516Z,5404.00
2019-02-03T14:13:12.749Z,5500.00
2019-02-03T14:15:16.907Z,6108.00
2019-02-03T14:16:17.140Z,6256.00
2019-02-03T14:18:21.277Z,6564.00
2019-02-03T14:19:21.513Z,6412.00
2019-02-03T14:21:25.671Z,6124.00
2019-02-03T14:22:25.906Z,5992.00
2019-02-03T14:24:32.955Z,5652.00
2019-02-03T14:25:30.298Z,5204.00
2019-02-03T14:27:34.438Z,4984.00
2019-02-03T14:28:34.672Z,4784.00
2019-02-03T14:30:40.860Z,4832.00
2019-02-03T14:31:39.119Z,5116.00
2019-02-03T14:33:43.238Z,5496.00
2019-02-03T14:34:43.469Z,5700.00
2019-02-03T14:36:36.559Z,6388.00
2019-02-03T14:37:36.792Z,6620.00
2019-02-03T14:39:40.962Z,6444.00
2019-02-03T14:40:41.190Z,6040.00
2019-02-03T14:42:48.052Z,6040.00
2019-02-03T14:43:45.561Z,6252.00
2019-02-03T14:45:49.722Z,6040.00
2019-02-03T14:46:49.957Z,5812.00
2019-02-03T14:48:54.097Z,5800.00
2019-02-03T14:49:54.333Z,5436.00
2019-02-03T14:51:58.491Z,5188.00
2019-02-03T14:52:58.805Z,4452.00
2019-02-03T14:55:03.151Z,3372.00
2019-02-03T14:56:03.235Z,2844.00
2019-02-03T14:58:07.372Z,2168.00
2019-02-03T14:59:07.606Z,2444.00
2019-02-03T15:01:11.765Z,3876.00
2019-02-03T15:02:11.998Z,4576.00
2019-02-03T15:04:16.140Z,4972.00
2019-02-03T15:05:16.374Z,4904.00
2019-02-03T15:07:09.459Z,5252.00
2019-02-03T15:08:09.714Z,5492.00
2019-02-03T15:10:13.836Z,5328.00
2019-02-03T15:11:14.065Z,4952.00
2019-02-03T15:13:18.223Z,4540.00
2019-02-03T15:14:18.457Z,6516.00
2019-02-03T15:16:22.619Z,7744.00
2019-02-03T15:17:22.851Z,5376.00
2019-02-03T15:19:26.992Z,9168.00
2019-02-03T15:20:27.223Z,9060.00
2019-02-03T15:22:31.388Z,5424.00
2019-02-03T15:23:31.615Z,5080.00
2019-02-03T15:25:35.817Z,4428.00
2019-02-03T15:26:36.048Z,4252.00
2019-02-03T15:28:40.188Z,3836.00
2019-02-03T15:29:40.423Z,3468.00
2019-02-03T15:31:44.582Z,3016.00
2019-02-03T15:32:44.815Z,3232.00
2019-02-03T15:34:48.958Z,3100.00
2019-02-03T15:35:49.195Z,3020.00
2019-02-03T15:37:53.352Z,3068.00
2019-02-03T15:38:53.590Z,2644.00
2019-02-03T15:40:57.752Z,2180.00
2019-02-03T15:41:57.983Z,2068.00
2019-02-03T15:44:02.119Z,1676.00
2019-02-03T15:45:02.354Z,1552.00
2019-02-03T15:46:55.445Z,1544.00
2019-02-03T15:47:56.512Z,1704.00
2019-02-03T15:50:00.464Z,1528.00
2019-02-03T15:51:00.699Z,1460.00
2019-02-03T15:53:04.874Z,1136.00
2019-02-03T15:54:05.107Z,1004.00
2019-02-03T15:56:10.769Z,840.00
2019-02-03T15:57:11.002Z,720.00
2019-02-03T15:59:15.147Z,532.00
2019-02-03T16:00:15.381Z,508.00
2019-02-03T16:02:19.552Z,420.00
2019-02-03T16:03:19.777Z,360.00
2019-02-03T16:05:23.930Z,284.00
2019-02-03T16:06:24.171Z,276.00
2019-02-03T16:08:28.335Z,384.00
2019-02-03T16:09:28.570Z,448.00
2019-02-03T16:11:32.739Z,444.00
2019-02-03T16:12:32.971Z,396.00
2019-02-03T16:14:37.611Z,292.00
2019-02-03T16:15:37.854Z,264.00
2019-02-03T16:17:42.020Z,204.00
2019-02-03T16:18:42.248Z,192.00
2019-02-03T16:20:46.390Z,140.00
2019-02-03T16:21:46.624Z,128.00
2019-02-03T16:23:50.804Z,100.00
2019-02-03T16:24:51.038Z,84.00
2019-02-03T16:26:44.133Z,80.00
2019-02-03T16:27:44.368Z,76.00
2019-02-03T16:29:48.541Z,64.00
2019-02-03T16:30:48.757Z,56.00
2019-02-03T16:32:52.925Z,36.00
2019-02-03T16:33:53.159Z,32.00
2019-02-03T16:35:57.299Z,24.00
2019-02-03T16:36:57.532Z,20.00
2019-02-03T16:39:01.696Z,12.00
2019-02-03T16:40:01.931Z,12.00
2019-02-03T16:42:06.097Z,8.00
2019-02-03T16:43:06.331Z,8.00
2019-02-03T16:45:10.475Z,4.00
2019-02-03T16:46:10.703Z,4.00
2019-02-03T16:48:14.904Z,4.00
2019-02-03T16:49:16.720Z,4.00
2019-02-03T16:51:19.749Z,0.00
2019-02-03T16:52:19.981Z,0.00
2019-02-03T16:54:24.648Z,0.00
2019-02-03T16:55:24.881Z,0.00
2019-02-03T16:57:29.043Z,0.00
2019-02-03T16:58:29.276Z,0.00
2019-02-03T17:00:33.422Z,0.00
2019-02-03T17:01:33.661Z,0.00
2019-02-03T17:03:37.821Z,0.00
2019-02-03T17:04:38.052Z,0.00
2019-02-03T17:06:31.125Z,0.00
2019-02-03T17:07:31.359Z,0.00
2019-02-03T17:09:35.527Z,0.00
2019-02-03T17:10:35.789Z,0.00
2019-02-03T17:12:39.939Z,0.00
2019-02-03T17:13:40.175Z,0.00
2019-02-03T17:15:44.315Z,0.00
2019-02-03T17:16:44.549Z,0.00
2019-02-03T17:18:48.712Z,0.00
2019-02-03T17:19:48.943Z,0.00
2019-02-03T17:21:53.087Z,0.00
2019-02-03T17:22:53.314Z,0.00
2019-02-03T17:24:58.502Z,0.00
2019-02-03T17:25:58.737Z,0.00
2019-02-03T17:28:03.394Z,0.00
2019-02-03T17:29:03.630Z,0.00
2019-02-03T17:31:07.771Z,0.00
2019-02-03T17:32:08.006Z,0.00
2019-02-03T17:34:12.170Z,0.00
2019-02-03T17:35:12.407Z,0.00
2019-02-03T17:37:05.474Z,0.00
2019-02-03T17:38:05.707Z,0.00
2019-02-03T17:40:09.968Z,0.00
2019-02-03T17:41:10.142Z,0.00
2019-02-03T17:43:14.329Z,0.00
2019-02-03T17:44:19.713Z,0.00
2019-02-03T17:46:18.734Z,0.00
2019-02-03T17:47:19.020Z,0.00
2019-02-03T17:49:23.190Z,0.00
2019-02-03T17:50:23.428Z,0.00
2019-02-03T17:52:38.306Z,0.00
2019-02-03T17:53:27.813Z,0.00
2019-02-03T17:55:31.991Z,0.00
2019-02-03T17:56:32.266Z,0.00
2019-02-03T17:58:37.475Z,0.00
2019-02-03T17:59:37.740Z,0.00
2019-02-03T18:01:41.886Z,0.00
2019-02-03T18:02:42.121Z,0.00
2019-02-03T18:04:46.790Z,0.00
2019-02-03T18:05:47.018Z,0.00
2019-02-03T18:07:51.692Z,0.00
2019-02-03T18:08:52.084Z,0.00
2019-02-03T18:10:56.451Z,0.00
2019-02-03T18:11:56.456Z,0.00
2019-02-03T18:14:00.668Z,0.00
2019-02-03T18:15:00.934Z,0.00
2019-02-03T18:16:54.034Z,0.00
2019-02-03T18:17:54.258Z,0.00
2019-02-03T18:19:59.568Z,0.00
2019-02-03T18:20:59.891Z,0.00
2019-02-03T18:23:04.052Z,0.00
2019-02-03T18:24:04.330Z,0.00
2019-02-03T18:26:08.499Z,0.00
2019-02-03T18:27:08.850Z,0.00
2019-02-03T18:29:12.915Z,0.00
2019-02-03T18:30:13.151Z,0.00
2019-02-03T18:32:17.358Z,0.00
2019-02-03T18:33:17.586Z,0.00
2019-02-03T18:35:21.753Z,0.00
2019-02-03T18:36:21.988Z,0.00
2019-02-03T18:38:27.149Z,0.00
2019-02-03T18:39:27.374Z,0.00
2019-02-03T18:41:31.551Z,0.00
2019-02-03T18:42:31.776Z,0.00
2019-02-03T18:44:36.407Z,0.00
2019-02-03T18:45:36.176Z,0.00
2019-02-03T18:47:40.314Z,0.00
2019-02-03T18:48:40.553Z,0.00
2019-02-03T18:50:44.734Z,0.00
2019-02-03T18:51:44.962Z,0.00
2019-02-03T18:53:49.109Z,0.00
2019-02-03T18:54:49.400Z,0.00
2019-02-03T18:56:42.496Z,0.00
2019-02-03T18:57:42.726Z,0.00
2019-02-03T18:59:46.942Z,0.00
2019-02-03T19:00:47.175Z,0.00
2019-02-03T19:02:51.315Z,0.00
2019-02-03T19:03:51.548Z,0.00
2019-02-03T19:05:55.718Z,0.00
2019-02-03T19:06:56.067Z,0.00
2019-02-03T19:09:00.126Z,0.00
2019-02-03T19:10:00.361Z,0.00
2019-02-03T19:12:04.533Z,0.00
2019-02-03T19:13:04.767Z,0.00
2019-02-03T19:15:08.930Z,0.00
2019-02-03T19:16:09.163Z,0.00
2019-02-03T19:18:13.304Z,0.00
2019-02-03T19:19:13.537Z,0.00
2019-02-03T19:21:18.732Z,0.00
2019-02-03T19:22:18.943Z,0.00
2019-02-03T19:24:23.087Z,0.00